Time;durP1;ratioP1;P1;durP2;ratioP2;P2;SDS_P1;SDS_P2;PMS_P1;PMS_P2;Temp;Humidity;BMP_temperature;BMP_pressure;BME280_temperature;BME280_humidity;BME280_pressure;Samples;Min_cycle;Max_cycle;Signal;HPM_P1;HPM_P2
2021/04/05 00:01:46;;;;;;;21.02;14.10;;;154.00;2252.80;;;;;;5098752;28;20031;-73
2021/04/05 00:04:12;;;;;;;19.67;13.13;;;154.10;2252.80;;;;;;5098205;28;20342;-72
2021/04/05 00:06:38;;;;;;;18.60;13.52;;;154.20;2252.80;;;;;;5098381;28;20024;-72
2021/04/05 00:09:06;;;;;;;19.52;13.85;;;154.00;2252.80;;;;;;5098397;28;20622;-72
2021/04/05 00:11:32;;;;;;;20.17;13.65;;;153.70;2252.80;;;;;;5097995;28;20427;-72
2021/04/05 00:13:58;;;;;;;18.58;12.10;;;153.80;2252.80;;;;;;5098158;28;20038;-71
2021/04/05 00:16:24;;;;;;;22.55;12.82;;;153.90;2252.80;;;;;;5098264;28;20032;-71
2021/04/05 00:18:49;;;;;;;17.92;13.30;;;154.10;2252.80;;;;;;5098668;28;20342;-72
2021/04/05 00:21:22;;;;;;;18.80;13.13;;;153.80;2252.80;;;;;;5098208;28;20085;-73
2021/04/05 00:23:52;;;;;;;19.42;12.95;;;154.00;2252.80;;;;;;5097920;28;20035;-71
2021/04/05 00:26:18;;;;;;;19.10;13.00;;;154.00;2252.80;;;;;;5098606;28;20311;-72
2021/04/05 00:28:45;;;;;;;19.60;14.35;;;154.00;2252.80;;;;;;5079331;28;20332;-71
2021/04/05 00:31:11;;;;;;;19.33;13.90;;;154.00;2252.80;;;;;;5097881;28;20488;-72
2021/04/05 00:33:37;;;;;;;18.15;13.48;;;154.00;2252.80;;;;;;5097566;28;20056;-72
2021/04/05 00:36:03;;;;;;;20.80;13.35;;;153.90;2252.80;;;;;;5098104;28;20073;-71
2021/04/05 00:38:29;;;;;;;18.23;12.80;;;153.80;2252.80;;;;;;5098034;28;20415;-72
2021/04/05 00:41:08;;;;;;;19.48;13.68;;;154.00;2252.80;;;;;;5097160;28;20024;-72
2021/04/05 00:43:38;;;;;;;20.90;13.93;;;154.00;2252.80;;;;;;5098069;28;20027;-71
2021/04/05 00:46:06;;;;;;;20.10;13.68;;;154.10;2252.80;;;;;;5098310;28;20144;-72
2021/04/05 00:48:33;;;;;;;19.02;13.30;;;154.10;2252.80;;;;;;5098186;28;20407;-72
2021/04/05 00:51:20;;;;;;;17.70;12.63;;;154.10;2252.80;;;;;;5097735;28;20028;-72
2021/04/05 00:53:48;;;;;;;17.17;12.07;;;154.00;2252.80;;;;;;5096696;28;20040;-71
2021/04/05 00:56:16;;;;;;;16.73;12.07;;;153.90;2252.80;;;;;;5097014;28;20016;-72
2021/04/05 00:58:42;;;;;;;19.77;13.05;;;153.90;2252.80;;;;;;5096538;28;20077;-72
2021/04/05 01:01:12;;;;;;;17.80;12.45;;;153.80;2252.80;;;;;;5096852;28;20089;-72
2021/04/05 01:03:41;;;;;;;17.23;12.55;;;153.80;2252.80;;;;;;5096585;28;20942;-71
2021/04/05 01:06:12;;;;;;;;;;;153.80;2252.80;;;;;;5097090;28;20024;-72
2021/04/05 01:08:38;;;;;;;22.63;13.07;;;153.70;2252.80;;;;;;5096776;28;20060;-72
2021/04/05 01:11:05;;;;;;;19.50;13.68;;;153.70;2252.80;;;;;;5093800;28;20415;-71
2021/04/05 01:13:30;;;;;;;19.25;13.57;;;153.70;2252.80;;;;;;5097477;28;20422;-73
2021/04/05 01:15:56;;;;;;;22.98;13.73;;;153.80;2252.80;;;;;;5096782;28;20034;-72
2021/04/05 01:18:23;;;;;;;18.98;14.00;;;153.70;2252.80;;;;;;5096177;28;20124;-73
2021/04/05 01:20:50;;;;;;;21.10;13.82;;;153.70;2252.80;;;;;;5096406;28;20028;-70
2021/04/05 01:23:17;;;;;;;22.45;14.68;;;153.60;2252.80;;;;;;5096298;28;20102;-73
2021/04/05 01:25:44;;;;;;;21.45;12.95;;;153.60;2252.80;;;;;;5096877;28;20032;-72
2021/04/05 01:28:10;;;;;;;22.33;13.77;;;153.60;2252.80;;;;;;5096746;28;20035;-72
2021/04/05 01:30:40;;;;;;;19.80;13.40;;;153.60;2252.80;;;;;;5096727;28;20028;-73
2021/04/05 01:33:36;;;;;;;18.42;12.95;;;153.60;2252.80;;;;;;5097258;28;20044;-72
2021/04/05 01:36:07;;;;;;;16.45;12.02;;;153.70;2252.80;;;;;;5096924;28;20389;-70
2021/04/05 01:38:40;;;;;;;19.15;12.45;;;153.60;2252.80;;;;;;5097010;28;20069;-73
2021/04/05 01:41:12;;;;;;;17.05;12.15;;;153.70;2252.80;;;;;;5096198;28;20055;-72
2021/04/05 01:43:39;;;;;;;16.15;11.77;;;153.70;2252.80;;;;;;5095955;28;20050;-71
2021/04/05 01:46:06;;;;;;;18.77;12.82;;;153.80;2252.80;;;;;;5096119;28;20114;-72
2021/04/05 01:48:33;;;;;;;20.02;13.05;;;153.80;2252.80;;;;;;5096685;28;20058;-74
2021/04/05 01:51:04;;;;;;;17.67;12.18;;;153.80;2252.80;;;;;;5096662;28;20016;-73
2021/04/05 01:53:30;;;;;;;18.17;12.38;;;153.90;2252.80;;;;;;5096418;28;20035;-73
2021/04/05 01:56:00;;;;;;;17.60;12.70;;;154.00;2252.80;;;;;;5096566;28;20028;-72
2021/04/05 01:58:27;;;;;;;17.98;12.18;;;154.00;2252.80;;;;;;5096816;28;20115;-71
2021/04/05 02:00:53;;;;;;;17.75;12.30;;;154.10;2252.80;;;;;;5096360;28;20024;-73
2021/04/05 02:03:19;;;;;;;16.33;12.10;;;154.20;2252.80;;;;;;5096461;28;20028;-73
2021/04/05 02:05:55;;;;;;;22.02;12.90;;;154.20;2252.80;;;;;;5096256;28;20023;-73
2021/04/05 02:08:22;;;;;;;18.08;12.27;;;154.10;2252.80;;;;;;5096503;28;20039;-72
2021/04/05 02:10:50;;;;;;;16.50;11.63;;;154.00;2252.80;;;;;;5096463;28;20023;-72
2021/04/05 02:13:20;;;;;;;20.55;12.93;;;154.00;2252.80;;;;;;5095595;28;20694;-72
2021/04/05 02:15:46;;;;;;;17.63;13.10;;;154.00;2252.80;;;;;;5095603;28;20030;-73
2021/04/05 02:18:12;;;;;;;21.33;13.95;;;154.00;2252.80;;;;;;5095036;28;20343;-72
2021/04/05 02:20:39;;;;;;;17.38;12.27;;;154.00;2252.80;;;;;;5095431;28;20028;-73
2021/04/05 02:23:05;;;;;;;18.50;12.43;;;154.00;2252.80;;;;;;5096339;28;20020;-71
2021/04/05 02:25:32;;;;;;;20.23;12.80;;;154.00;2252.80;;;;;;5096077;28;20035;-72
2021/04/05 02:27:58;;;;;;;22.10;12.95;;;154.20;2252.80;;;;;;5095652;28;20044;-72
2021/04/05 02:30:27;;;;;;;20.95;14.00;;;154.10;2252.80;;;;;;5095460;28;20499;-71
2021/04/05 02:32:57;;;;;;;22.63;14.48;;;154.10;2252.80;;;;;;5095120;28;20067;-71
2021/04/05 02:35:24;;;;;;;21.45;14.73;;;154.10;2252.80;;;;;;5092840;28;20028;-72
2021/04/05 02:37:51;;;;;;;19.88;14.02;;;154.20;2252.80;;;;;;5095012;28;20036;-73
2021/04/05 02:40:18;;;;;;;20.65;13.10;;;154.10;2252.80;;;;;;5094875;28;20024;-73
2021/04/05 02:42:44;;;;;;;20.20;13.45;;;154.10;2252.80;;;;;;5095196;28;20031;-72
2021/04/05 02:45:11;;;;;;;19.60;13.40;;;154.10;2252.80;;;;;;5095671;28;20032;-72
2021/04/05 02:47:38;;;;;;;20.02;13.88;;;154.10;2252.80;;;;;;5095250;28;20040;-71
2021/04/05 02:50:06;;;;;;;21.27;14.40;;;154.20;2252.80;;;;;;5095982;28;20059;-72
2021/04/05 02:52:36;;;;;;;21.73;13.40;;;154.10;2252.80;;;;;;5095745;28;20039;-72
2021/04/05 02:55:04;;;;;;;21.52;14.20;;;154.00;2252.80;;;;;;5095192;28;20343;-72
2021/04/05 02:57:35;;;;;;;21.77;14.38;;;154.10;2252.80;;;;;;5095727;28;20031;-72
2021/04/05 03:00:22;;;;;;;21.23;14.30;;;154.00;2252.80;;;;;;5095440;28;20036;-71
2021/04/05 03:02:50;;;;;;;21.27;15.00;;;154.00;2252.80;;;;;;5095394;28;20020;-71
2021/04/05 03:05:18;;;;;;;20.42;14.45;;;154.00;2252.80;;;;;;5095230;28;20024;-72
2021/04/05 03:07:45;;;;;;;27.45;14.95;;;154.10;2252.80;;;;;;5095049;28;20040;-71
2021/04/05 03:10:12;;;;;;;21.95;14.35;;;154.20;2252.80;;;;;;5095279;28;20035;-72
2021/04/05 03:12:40;;;;;;;20.67;13.63;;;154.20;2252.80;;;;;;5094969;28;20101;-72
2021/04/05 03:15:08;;;;;;;20.50;14.07;;;154.20;2252.80;;;;;;5095362;28;20027;-73
2021/04/05 03:17:35;;;;;;;20.27;13.00;;;154.00;2252.80;;;;;;5095049;28;20119;-73
2021/04/05 03:20:06;;;;;;;19.75;12.38;;;154.10;2252.80;;;;;;5094982;28;20415;-72
2021/04/05 03:22:33;;;;;;;20.77;12.00;;;154.10;2252.80;;;;;;5094959;28;20105;-72
2021/04/05 03:24:59;;;;;;;19.15;12.77;;;154.10;2252.80;;;;;;5094367;28;20039;-72
2021/04/05 03:27:24;;;;;;;17.60;12.55;;;154.10;2252.80;;;;;;5094049;28;20028;-72
2021/04/05 03:29:50;;;;;;;16.23;11.50;;;153.90;2252.80;;;;;;5093227;28;20392;-72
2021/04/05 03:32:19;;;;;;;19.33;12.50;;;153.90;2252.80;;;;;;5094832;28;20040;-73
2021/04/05 03:34:54;;;;;;;16.85;11.57;;;154.00;2252.80;;;;;;5095245;28;20468;-72
2021/04/05 03:37:21;;;;;;;17.45;11.98;;;154.00;2252.80;;;;;;5094814;28;20055;-72
2021/04/05 03:39:50;;;;;;;19.65;12.13;;;153.90;2252.80;;;;;;5094839;28;20384;-72
2021/04/05 03:42:35;;;;;;;16.85;11.25;;;153.80;2252.80;;;;;;5095047;28;20031;-73
2021/04/05 03:45:24;;;;;;;17.88;11.88;;;153.80;2252.80;;;;;;5094511;28;20027;-72
2021/04/05 03:47:56;;;;;;;;;;;153.80;2252.80;;;;;;5093853;28;20040;-72
2021/04/05 03:50:32;;;;;;;17.20;11.20;;;153.80;2252.80;;;;;;5092989;28;19960;-72
2021/04/05 03:53:40;;;;;;;18.83;12.05;;;153.70;2252.80;;;;;;5092889;28;20487;-72
2021/04/05 03:56:31;;;;;;;16.95;11.45;;;153.80;2252.80;;;;;;5081634;28;20578;-71
2021/04/05 03:59:02;;;;;;;18.67;10.88;;;153.70;2252.80;;;;;;5090084;28;20028;-73
2021/04/05 04:01:30;;;;;;;18.00;11.55;;;153.80;2252.80;;;;;;5093043;28;20022;-71
2021/04/05 04:06:40;;;;;;;17.98;11.57;;;153.80;2252.80;;;;;;5093492;28;20407;-71
2021/04/05 04:09:08;;;;;;;18.55;12.07;;;153.60;2252.80;;;;;;5094067;28;20339;-72
2021/04/05 04:11:36;;;;;;;17.50;10.90;;;153.60;2252.80;;;;;;5091612;28;20330;-71
2021/04/05 04:14:05;;;;;;;16.45;10.98;;;153.60;2252.80;;;;;;5094152;28;20028;-71
2021/04/05 04:16:31;;;;;;;;;;;153.70;2252.80;;;;;;5094105;28;20078;-72
2021/04/05 04:19:03;;;;;;;18.15;11.00;;;153.70;2252.80;;;;;;5093628;28;19911;-72
2021/04/05 04:21:29;;;;;;;16.05;10.77;;;153.60;2252.80;;;;;;5093720;28;20035;-71
2021/04/05 04:23:59;;;;;;;16.67;11.13;;;153.70;2252.80;;;;;;5093986;28;20020;-70
2021/04/05 04:26:25;;;;;;;15.55;10.70;;;153.80;2252.80;;;;;;5093505;28;20031;-72
2021/04/05 04:28:52;;;;;;;16.30;10.75;;;153.80;2252.80;;;;;;5093785;28;20036;-72
2021/04/05 04:31:21;;;;;;;17.90;12.48;;;154.00;2252.80;;;;;;5093523;28;20024;-72
2021/04/05 04:33:50;;;;;;;15.80;10.52;;;154.10;2252.80;;;;;;5091625;28;20059;-72
2021/04/05 04:36:23;;;;;;;16.88;10.93;;;154.10;2252.80;;;;;;5094021;28;20028;-72
2021/04/05 04:38:52;;;;;;;15.27;10.77;;;154.20;2252.80;;;;;;5095037;28;20139;-72
2021/04/05 04:41:25;;;;;;;14.32;10.02;;;154.20;2252.80;;;;;;5097008;28;20115;-73
2021/04/05 04:43:59;;;;;;;15.35;10.07;;;154.20;2252.80;;;;;;5095893;28;20032;-71
2021/04/05 04:46:25;;;;;;;20.33;11.25;;;154.20;2252.80;;;;;;5094679;28;20024;-72
2021/04/05 04:48:59;;;;;;;15.15;10.40;;;154.20;2252.80;;;;;;5096640;28;20024;-71
2021/04/05 04:51:25;;;;;;;19.95;11.52;;;154.20;2252.80;;;;;;5094920;28;20394;-73
2021/04/05 04:53:54;;;;;;;16.58;10.52;;;154.20;2252.80;;;;;;5097059;28;20055;-72
2021/04/05 04:56:20;;;;;;;18.33;12.07;;;154.30;2252.80;;;;;;5097306;28;20035;-72
2021/04/05 04:58:46;;;;;;;20.20;12.80;;;154.10;2252.80;;;;;;5097097;28;20342;-71
2021/04/05 05:01:13;;;;;;;18.35;12.82;;;154.20;2252.80;;;;;;5096628;28;20039;-72
2021/04/05 05:03:51;;;;;;;18.02;13.20;;;154.20;2252.80;;;;;;5096834;28;20054;-72
2021/04/05 05:06:20;;;;;;;19.52;13.68;;;153.90;2252.80;;;;;;5096880;28;20024;-73
2021/04/05 05:08:46;;;;;;;;;;;154.00;2252.80;;;;;;5097104;28;20055;-71
2021/04/05 05:11:12;;;;;;;19.48;13.82;;;154.20;2252.80;;;;;;5096728;28;19912;-71
2021/04/05 05:13:38;;;;;;;24.10;15.00;;;154.30;2252.80;;;;;;5096218;28;20024;-71
2021/04/05 05:16:08;;;;;;;123.63;63.97;;;154.20;2252.80;;;;;;5097415;28;20024;-72
2021/04/05 05:18:35;;;;;;;104.93;59.42;;;154.30;2252.80;;;;;;5097291;28;20031;-71
2021/04/05 05:21:05;;;;;;;108.57;55.10;;;154.30;2252.80;;;;;;5097681;28;20032;-73
2021/04/05 05:23:36;;;;;;;58.95;34.05;;;154.30;2252.80;;;;;;5095860;28;20119;-72
2021/04/05 05:26:03;;;;;;;21.70;14.82;;;154.40;2252.80;;;;;;5096598;28;20089;-73
2021/04/05 05:28:33;;;;;;;18.67;11.90;;;154.50;2252.80;;;;;;5097500;28;20345;-72
2021/04/05 05:31:00;;;;;;;16.85;11.73;;;154.50;2252.80;;;;;;5099127;28;20028;-71
2021/04/05 05:33:26;;;;;;;15.38;10.88;;;154.50;2252.80;;;;;;5099129;28;20048;-72
2021/04/05 05:35:53;;;;;;;18.05;12.98;;;179.20;2252.80;;;;;;5099002;28;20024;-71
2021/04/05 05:38:22;;;;;;;17.13;12.35;;;154.50;2252.80;;;;;;5081063;28;20381;-72
2021/04/05 05:40:49;;;;;;;15.13;11.90;;;179.20;2252.80;;;;;;5098919;28;20024;-72
2021/04/05 05:43:41;;;;;;;19.08;11.95;;;179.30;2252.80;;;;;;5099153;28;20024;-72
2021/04/05 05:46:15;;;;;;;17.02;12.13;;;179.20;2252.80;;;;;;5098797;28;20533;-72
2021/04/05 05:49:00;;;;;;;19.52;12.27;;;179.20;2252.80;;;;;;5098778;28;20669;-72
2021/04/05 05:51:44;;;;;;;20.77;11.02;;;179.30;2252.80;;;;;;5097693;28;20332;-70
2021/04/05 05:54:16;;;;;;;15.43;11.07;;;179.40;2252.80;;;;;;5099247;28;20486;-70
2021/04/05 05:57:04;;;;;;;18.30;11.25;;;179.40;2252.80;;;;;;5098836;28;20032;-71
2021/04/05 05:59:40;;;;;;;17.83;12.02;;;179.40;2252.80;;;;;;5045876;28;20039;-71
2021/04/05 06:02:35;;;;;;;16.70;12.02;;;179.40;2252.80;;;;;;5098673;28;20024;-74
2021/04/05 06:05:33;;;;;;;19.15;11.35;;;179.40;2252.80;;;;;;5097445;28;20024;-72
2021/04/05 06:08:36;;;;;;;16.48;10.52;;;179.40;2252.80;;;;;;5086007;28;20466;-71
2021/04/05 06:11:38;;;;;;;15.85;9.50;;;179.40;2252.80;;;;;;5096226;28;20351;-71
2021/04/05 06:14:31;;;;;;;14.65;10.27;;;179.40;2252.80;;;;;;5097045;28;20035;-70
2021/04/05 06:17:03;;;;;;;14.75;10.32;;;179.40;2252.80;;;;;;5092550;28;20032;-71
2021/04/05 06:19:50;;;;;;;16.00;10.30;;;179.40;2252.80;;;;;;5095802;28;20028;-73
2021/04/05 06:22:34;;;;;;;15.30;10.00;;;179.50;2252.80;;;;;;5096009;28;20028;-69
2021/04/05 06:25:24;;;;;;;19.00;10.75;;;179.60;2252.80;;;;;;5095836;28;20028;-73
2021/04/05 06:28:02;;;;;;;15.77;10.93;;;179.60;2252.80;;;;;;5095143;28;20093;-71
2021/04/05 06:30:43;;;;;;;16.45;10.38;;;179.90;2252.80;;;;;;5094819;28;20023;-70
2021/04/05 06:33:20;;;;;;;14.40;9.50;;;180.00;2252.80;;;;;;5095879;28;20139;-70
2021/04/05 06:35:52;;;;;;;14.77;10.05;;;204.90;2252.80;;;;;;5096112;28;20024;-72
2021/04/05 06:38:37;;;;;;;16.80;10.40;;;205.10;2252.80;;;;;;5095377;28;20035;-72
2021/04/05 06:41:36;;;;;;;13.88;9.23;;;205.00;2252.80;;;;;;5093377;28;20417;-71
2021/04/05 06:44:28;;;;;;;16.98;11.05;;;204.80;2252.80;;;;;;5012646;28;20037;-71
2021/04/05 06:46:54;;;;;;;17.50;11.18;;;179.80;2252.80;;;;;;5012129;28;20061;-72
2021/04/05 06:49:43;;;;;;;17.40;10.70;;;179.50;2252.80;;;;;;5012430;28;20075;-71
2021/04/05 06:52:24;;;;;;;19.08;11.68;;;179.40;2252.80;;;;;;4983903;28;20049;-71
2021/04/05 06:55:04;;;;;;;16.75;10.85;;;154.50;2252.80;;;;;;5012134;28;20154;-70
2021/04/05 06:57:48;;;;;;;15.95;11.13;;;179.20;2252.80;;;;;;5012734;28;20044;-72
2021/04/05 07:00:32;;;;;;;18.00;11.48;;;179.20;2252.80;;;;;;5009789;28;20061;-71
2021/04/05 07:03:14;;;;;;;17.88;10.50;;;179.20;2252.80;;;;;;5011041;28;20045;-73
2021/04/05 07:05:49;;;;;;;13.63;9.48;;;179.30;2252.80;;;;;;5010971;28;20139;-71
2021/04/05 07:08:36;;;;;;;18.88;11.10;;;179.20;2252.80;;;;;;5010037;28;20046;-70
2021/04/05 07:11:16;;;;;;;17.60;11.88;;;179.20;2252.80;;;;;;5011365;28;20065;-71
2021/04/05 07:13:45;;;;;;;18.77;11.02;;;154.50;2252.80;;;;;;5011904;28;20111;-75
2021/04/05 07:16:22;;;;;;;16.50;10.68;;;179.30;2252.80;;;;;;5012006;28;20018;-74
2021/04/05 07:19:09;;;;;;;20.65;11.32;;;179.40;2252.80;;;;;;5012157;28;20603;-76
2021/04/05 07:21:48;;;;;;;16.35;10.23;;;179.50;2252.80;;;;;;5092942;28;20042;-74
2021/04/05 07:24:28;;;;;;;20.63;14.70;;;179.40;2252.80;;;;;;5092786;28;20030;-73
2021/04/05 07:27:09;;;;;;;17.45;10.43;;;179.40;2252.80;;;;;;5092569;28;20373;-73
2021/04/05 07:29:43;;;;;;;15.27;10.63;;;179.40;2252.80;;;;;;5092241;28;20035;-75
2021/04/05 07:32:23;;;;;;;19.13;11.65;;;179.50;2252.80;;;;;;5091553;28;20486;-75
2021/04/05 07:35:29;;;;;;;14.70;10.23;;;179.70;2252.80;;;;;;5091804;28;20024;-76
2021/04/05 07:38:20;;;;;;;17.92;10.85;;;179.70;2252.80;;;;;;5092466;28;20023;-75
2021/04/05 07:41:00;;;;;;;20.20;10.70;;;179.70;2252.80;;;;;;5093775;28;20478;-74
2021/04/05 07:43:52;;;;;;;16.02;10.23;;;179.80;2252.80;;;;;;5093259;28;20028;-76
2021/04/05 07:46:32;;;;;;;18.35;11.07;;;179.80;2252.80;;;;;;5094191;28;20024;-75
2021/04/05 07:49:01;;;;;;;32.42;11.52;;;180.00;2252.80;;;;;;5093458;28;20509;-77
2021/04/05 07:51:41;;;;;;;15.20;10.85;;;180.10;2252.80;;;;;;5093648;28;20016;-77
2021/04/05 07:54:08;;;;;;;15.05;10.27;;;180.10;2252.80;;;;;;5094547;28;20024;-74
2021/04/05 07:56:57;;;;;;;14.10;9.88;;;180.00;2252.80;;;;;;5094300;28;20089;-72
2021/04/05 07:59:34;;;;;;;12.60;9.20;;;180.10;2252.80;;;;;;5094978;28;20024;-73
2021/04/05 08:02:11;;;;;;;13.30;9.65;;;180.10;2252.80;;;;;;5094744;28;20028;-71
2021/04/05 08:05:10;;;;;;;17.08;8.93;;;180.10;2252.80;;;;;;5094468;28;20066;-71
2021/04/05 08:07:51;;;;;;;14.07;7.68;;;204.90;2252.80;;;;;;5094881;28;20074;-71
2021/04/05 08:10:29;;;;;;;12.93;9.25;;;205.00;2252.80;;;;;;5094760;28;20032;-71
2021/04/05 08:13:04;;;;;;;14.60;9.55;;;205.10;2252.80;;;;;;5096164;28;20030;-71
2021/04/05 08:15:57;;;;;;;14.52;10.52;;;205.20;2252.80;;;;;;5097680;28;20036;-70
2021/04/05 08:19:17;;;;;;;14.02;8.98;;;205.40;2252.80;;;;;;5082760;28;20426;-70
2021/04/05 08:21:56;;;;;;;11.45;8.35;;;205.50;2252.80;;;;;;5022379;28;20034;-70
2021/04/05 08:24:55;;;;;;;14.43;8.63;;;205.60;2252.80;;;;;;5015352;28;20484;-70
2021/04/05 08:27:27;;;;;;;11.73;8.60;;;205.40;2252.80;;;;;;5015559;28;20029;-71
2021/04/05 08:30:03;;;;;;;12.07;8.70;;;205.20;2252.80;;;;;;5015942;28;20085;-70
2021/04/05 08:32:51;;;;;;;12.50;9.13;;;205.40;2252.80;;;;;;5015437;28;20066;-69
2021/04/05 08:35:38;;;;;;;12.20;8.13;;;205.50;2252.80;;;;;;5015599;28;20029;-69
2021/04/05 08:38:16;;;;;;;13.40;8.52;;;205.50;2252.80;;;;;;5013573;28;20724;-72
2021/04/05 08:41:06;;;;;;;10.80;7.90;;;205.60;2252.80;;;;;;5013128;28;20036;-70
2021/04/05 08:43:51;;;;;;;11.68;8.10;;;205.70;2252.80;;;;;;5014534;28;20124;-71
2021/04/05 08:46:23;;;;;;;11.60;8.60;;;230.40;2252.80;;;;;;5015282;28;20136;-71
2021/04/05 08:48:54;;;;;;;13.23;9.55;;;230.70;2176.00;;;;;;5015480;28;20123;-70
2021/04/05 08:51:35;;;;;;;15.25;8.02;;;231.30;2150.40;;;;;;5015066;28;20068;-71
2021/04/05 08:54:08;;;;;;;12.45;8.43;;;256.40;2099.20;;;;;;5015647;28;20033;-73
2021/04/05 08:57:02;;;;;;;13.13;8.40;;;256.30;2124.80;;;;;;5033078;28;20056;-72
2021/04/05 08:59:39;;;;;;;10.68;7.80;;;256.10;2073.60;;;;;;5032831;28;20056;-69
2021/04/05 09:02:21;;;;;;;14.10;7.65;;;256.30;2048.00;;;;;;5038335;28;20335;-70
2021/04/05 09:04:49;;;;;;;10.98;7.97;;;256.60;1996.80;;;;;;5056683;28;20402;-70
2021/04/05 09:07:34;;;;;;;13.32;8.75;;;281.60;2048.00;;;;;;5057190;28;20029;-69
2021/04/05 09:10:07;;;;;;;19.65;12.85;;;256.80;1920.00;;;;;;5057497;28;20032;-68
2021/04/05 09:12:37;;;;;;;12.73;9.15;;;256.70;2048.00;;;;;;5059759;28;20111;-68
2021/04/05 09:15:27;;;;;;;11.90;8.27;;;256.60;2073.60;;;;;;5058930;28;20033;-69
2021/04/05 09:18:14;;;;;;;14.80;8.70;;;256.30;1971.20;;;;;;5057373;28;20324;-68
2021/04/05 09:21:15;;;;;;;11.63;8.68;;;256.10;1971.20;;;;;;5057176;28;20032;-69
2021/04/05 09:23:59;;;;;;;18.75;12.50;;;256.30;1945.60;;;;;;5056806;28;20028;-69
2021/04/05 09:26:47;;;;;;;12.98;8.73;;;256.30;1971.20;;;;;;5054618;28;20025;-69
2021/04/05 09:29:26;;;;;;;13.98;9.32;;;256.70;1920.00;;;;;;5054192;28;20044;-70
2021/04/05 09:32:08;;;;;;;11.90;8.43;;;281.90;1996.80;;;;;;5061576;28;20518;-70
2021/04/05 09:34:43;;;;;;;12.88;8.48;;;281.60;1920.00;;;;;;5094797;28;20028;-71
2021/04/05 09:37:33;;;;;;;14.30;9.20;;;281.90;1894.40;;;;;;5096645;28;20110;-71
2021/04/05 09:40:17;;;;;;;13.18;9.43;;;256.80;1868.80;;;;;;5092153;28;20032;-71
2021/04/05 09:43:03;;;;;;;13.65;9.98;;;281.90;1868.80;;;;;;5095493;28;20099;-70
2021/04/05 09:45:32;;;;;;;11.85;9.43;;;282.30;1843.20;;;;;;5095799;28;20024;-70
2021/04/05 09:48:10;;;;;;;14.23;9.63;;;282.30;1843.20;;;;;;5095896;28;20039;-70
2021/04/05 09:50:59;;;;;;;15.32;10.18;;;307.20;1868.80;;;;;;5093228;28;20111;-71
2021/04/05 09:53:54;;;;;;;13.88;10.43;;;282.30;1817.60;;;;;;5094175;28;20110;-71
2021/04/05 09:56:24;;;;;;;15.65;11.35;;;282.50;1971.20;;;;;;5094244;28;20027;-70
2021/04/05 09:58:55;;;;;;;14.45;11.05;;;307.60;2022.40;;;;;;5092482;28;20070;-71
2021/04/05 10:01:25;;;;;;;15.00;10.65;;;307.50;1920.00;;;;;;5094440;28;20047;-70
2021/04/05 10:04:02;;;;;;;14.13;10.32;;;307.40;1971.20;;;;;;5094045;28;20390;-70
2021/04/05 10:06:33;;;;;;;16.08;11.50;;;281.90;1868.80;;;;;;5094210;28;20024;-70
2021/04/05 10:09:01;;;;;;;14.52;11.57;;;281.90;1920.00;;;;;;5093909;28;20051;-69
2021/04/05 10:11:29;;;;;;;13.63;10.43;;;281.60;1894.40;;;;;;5091770;28;20107;-70
2021/04/05 10:13:59;;;;;;;16.10;12.18;;;281.90;1894.40;;;;;;5094123;28;20059;-69
2021/04/05 10:16:26;;;;;;;15.30;11.32;;;256.90;1945.60;;;;;;5093447;28;20490;-70
2021/04/05 10:19:00;;;;;;;15.70;12.68;;;256.80;1920.00;;;;;;5094842;28;20034;-69
2021/04/05 10:21:26;;;;;;;19.05;12.63;;;256.90;1945.60;;;;;;5095309;28;20102;-70
2021/04/05 10:23:56;;;;;;;14.02;10.63;;;256.80;1894.40;;;;;;5094290;28;20535;-69
2021/04/05 10:26:38;;;;;;;25.50;17.80;;;281.60;1894.40;;;;;;5096734;28;20028;-69
2021/04/05 10:29:14;;;;;;;16.45;12.07;;;282.40;1894.40;;;;;;5092917;28;20120;-70
2021/04/05 10:31:42;;;;;;;14.43;10.93;;;307.30;1920.00;;;;;;5096254;28;20369;-71
2021/04/05 10:34:10;;;;;;;28.83;19.27;;;307.40;1894.40;;;;;;5095671;28;20089;-70
2021/04/05 10:36:46;;;;;;;14.65;10.10;;;307.80;1868.80;;;;;;5096217;28;20342;-70
2021/04/05 10:39:14;;;;;;;15.20;10.98;;;282.10;1868.80;;;;;;5096783;28;20083;-69
2021/04/05 10:41:52;;;;;;;17.13;11.57;;;282.10;1868.80;;;;;;5096186;28;20024;-69
2021/04/05 10:44:19;;;;;;;;;;;282.10;1843.20;;;;;;5094921;28;20330;-70
2021/04/05 10:46:57;;;;;;;18.90;11.48;;;307.50;1868.80;;;;;;5096193;28;20218;-69
2021/04/05 10:49:29;;;;;;;15.65;12.25;;;307.60;1792.00;;;;;;5092368;28;20374;-70
2021/04/05 10:52:11;;;;;;;14.45;9.38;;;307.30;1894.40;;;;;;5093941;28;20570;-69
2021/04/05 10:54:43;;;;;;;12.23;9.32;;;282.10;1817.60;;;;;;5092359;28;20016;-70
2021/04/05 10:57:25;;;;;;;14.13;9.43;;;282.30;1817.60;;;;;;5092848;28;20028;-69
2021/04/05 11:00:00;;;;;;;13.98;9.93;;;282.20;1792.00;;;;;;5095237;28;20050;-67
2021/04/05 11:02:50;;;;;;;12.27;8.85;;;282.40;1843.20;;;;;;5094874;28;20072;-69
2021/04/05 11:05:19;;;;;;;11.57;8.63;;;282.50;1792.00;;;;;;5094287;28;20028;-71
2021/04/05 11:07:58;;;;;;;14.73;9.38;;;307.90;1792.00;;;;;;5093031;28;20085;-71
2021/04/05 11:10:28;;;;;;;12.23;9.32;;;307.70;1792.00;;;;;;5095242;28;20427;-70
2021/04/05 11:13:06;;;;;;;10.93;9.40;;;307.70;1715.20;;;;;;5095945;28;20024;-71
2021/04/05 11:15:35;;;;;;;12.63;8.63;;;332.80;1766.40;;;;;;5096158;28;20043;-70
2021/04/05 11:18:06;;;;;;;13.57;9.00;;;333.10;1689.60;;;;;;5095803;28;20368;-72
2021/04/05 11:20:35;;;;;;;11.00;8.55;;;307.70;1766.40;;;;;;5095868;28;20081;-71
2021/04/05 11:23:09;;;;;;;9.90;7.50;;;307.20;1740.80;;;;;;5095463;28;20090;-69
2021/04/05 11:25:39;;;;;;;9.40;7.30;;;307.60;1740.80;;;;;;5094962;28;20028;-71
2021/04/05 11:28:13;;;;;;;12.18;8.43;;;307.60;1715.20;;;;;;5095471;28;20035;-70
2021/04/05 11:30:40;;;;;;;11.85;8.98;;;307.80;1664.00;;;;;;5092994;28;20027;-71
2021/04/05 11:33:12;;;;;;;13.35;8.85;;;333.60;1612.80;;;;;;5095311;28;20044;-69
2021/04/05 11:35:42;;;;;;;16.27;12.95;;;358.60;1587.20;;;;;;5094513;28;20089;-71
2021/04/05 11:38:12;;;;;;;24.52;19.65;;;358.90;1612.80;;;;;;5095276;28;20047;-71
2021/04/05 11:40:39;;;;;;;10.48;9.18;;;384.00;1587.20;;;;;;5094817;28;20024;-71
2021/04/05 11:43:15;;;;;;;12.50;8.55;;;359.10;1536.00;;;;;;5095220;28;20027;-70
2021/04/05 11:45:45;;;;;;;13.75;8.13;;;333.40;1587.20;;;;;;5095273;28;20027;-70
2021/04/05 11:48:23;;;;;;;10.48;8.20;;;333.50;1612.80;;;;;;5099573;28;20385;-69
2021/04/05 11:50:50;;;;;;;9.75;7.95;;;358.40;1612.80;;;;;;5099980;28;20027;-71
2021/04/05 11:53:40;;;;;;;8.85;7.18;;;358.60;1536.00;;;;;;5098942;28;20101;-71
2021/04/05 11:56:14;;;;;;;19.20;8.02;;;359.00;1484.80;;;;;;5098448;28;20062;-70
2021/04/05 11:59:03;;;;;;;13.00;6.47;;;359.30;1484.80;;;;;;5098839;28;20405;-70
2021/04/05 12:01:43;;;;;;;8.48;6.93;;;409.70;1433.60;;;;;;5099289;28;20039;-71
2021/04/05 12:04:23;;;;;;;9.90;6.32;;;384.50;1408.00;;;;;;5080167;28;20033;-71
2021/04/05 12:07:04;;;;;;;9.10;6.47;;;384.20;1510.40;;;;;;5095666;28;20032;-71
2021/04/05 12:09:37;;;;;;;7.22;5.88;;;384.00;1484.80;;;;;;5098686;28;20414;-71
2021/04/05 12:12:06;;;;;;;9.23;6.95;;;384.40;1433.60;;;;;;5080946;28;20064;-71
2021/04/05 12:14:34;;;;;;;9.35;7.28;;;409.60;1433.60;;;;;;5098443;28;20030;-71
2021/04/05 12:17:03;;;;;;;8.20;6.50;;;435.20;1356.80;;;;;;5098314;28;20038;-71
2021/04/05 12:19:34;;;;;;;6.20;5.10;;;461.20;1331.20;;;;;;5097795;28;20031;-71
2021/04/05 12:22:01;;;;;;;9.23;7.65;;;461.20;1254.40;;;;;;5097322;28;20474;-70
2021/04/05 12:24:35;;;;;;;10.10;6.47;;;435.80;1305.60;;;;;;5097080;28;20030;-71
2021/04/05 12:27:06;;;;;;;8.68;5.85;;;461.10;1254.40;;;;;;5097228;28;20024;-71
2021/04/05 12:29:33;;;;;;;8.90;5.88;;;435.90;1228.80;;;;;;5097639;28;20038;-76
2021/04/05 12:32:02;;;;;;;10.80;5.53;;;410.40;1356.80;;;;;;5097495;28;20332;-70
2021/04/05 12:34:33;;;;;;;9.30;6.10;;;410.10;1356.80;;;;;;5097748;28;20024;-71
2021/04/05 12:37:02;;;;;;;7.50;5.72;;;409.60;1433.60;;;;;;5098161;28;20032;-71
2021/04/05 12:39:32;;;;;;;31.98;24.27;;;410.20;1382.40;;;;;;5097744;28;20038;-72
2021/04/05 12:42:05;;;;;;;9.98;6.68;;;435.30;1356.80;;;;;;5097546;28;20042;-70